Terminal Aerodrome Forecast
Issued by NWS Wilmington, OH

Current Version | Previous Version | Graphics & Text | Print | Product List | Glossary On
Versions: 1 2 3 4 5 6 7 8 9 10 11 12
298
FTUS41 KILN 220535
TAFDAY
TAF
KDAY 220535Z 2206/2306 30005KT P6SM SKC
     FM221400 33010KT P6SM BKN100
     FM221800 35012KT P6SM SCT050
     FM230000 01006KT P6SM SKC=

USA.gov is the U.S. government's official web portal to all federal, state and local government web resources and services.